SAWE

Hermes Quijada International Airport

Rio Grande, Argentina
TAF AMD SAWE 212015Z 2120/2218 23005KT 9999 SCT006 TXM01/2120Z TNM05/ 2212Z BECMG 2201/2203 1500 BR BECMG 2206/2208 0300 FG
Issued Valid From Valid To
Jul-21 @ 20:15 UTC
(3 hours ago)
Jul-21 @ 20:00 UTC
(3 hours ago)
Jul-22 @ 18:00 UTC
(in 19 hours)
Jul-21 @ 20:00 to Jul-22 @ 01:00
TAF AMD SAWE 212015Z 2120/2218 23005KT 9999 SCT006 TXM01/2120Z TNM05/ 2212Z
Wind Visibility Clouds
230° at 5 knots 10,000+ meters
  • Scattered at 600' AGL
Becoming Jul-22 @ 01:00 to Jul-22 @ 06:00
BECMG 2201/2203 1500 BR
Wind Visibility Clouds Conditions
230° at 5 knots 1,497 meters
  • Scattered at 600' AGL
  • Mist
Becoming Jul-22 @ 06:00 to Jul-22 @ 18:00
BECMG 2206/2208 0300 FG
Wind Visibility Clouds Conditions
230° at 5 knots 306 meters
  • Scattered at 600' AGL
  • Fog
TAF AMD SAWE 212015Z 2120/2218 23005KT 9999 SCT006 TXM01/2120Z TNM05/ 2212Z BECMG 2201/2203 1500 BR BECMG 2206/2208 0300 FG
Issued Jul-21 @ 20:15 UTC
(3 hours ago)
Valid From Jul-21 @ 20:00 UTC
(3 hours ago)
Valid To Jul-22 @ 18:00 UTC
(in 19 hours)
Jul-21 @ 20:00 - Jul-22 @ 01:00
Wind Visibility
230° at 5 knots 10,000+ meters
Clouds
  • Scattered at 600' AGL
Becoming Jul-22 @ 01:00 - Jul-22 @ 06:00
Wind Visibility
230° at 5 knots 1,497 meters
Clouds
  • Scattered at 600' AGL
Conditions
  • Mist
Becoming Jul-22 @ 06:00 - Jul-22 @ 18:00
Wind Visibility
230° at 5 knots 306 meters
Clouds
  • Scattered at 600' AGL
Conditions
  • Fog